createdAt,value
2016-11-24T00:00:14.117Z,35.21
2016-11-24T00:01:14.439Z,35.21
2016-11-24T00:02:14.442Z,35.12
2016-11-24T00:03:14.453Z,35.02
2016-11-24T00:04:14.147Z,35.21
2016-11-24T00:05:14.153Z,35.12
2016-11-24T00:06:14.171Z,35.31
2016-11-24T00:07:14.480Z,34.83
2016-11-24T00:08:14.490Z,35.31
2016-11-24T00:09:14.182Z,34.92
2016-11-24T00:10:15.604Z,35.2
2016-11-24T00:11:14.509Z,35.31
2016-11-24T00:12:14.206Z,35.12
2016-11-24T00:13:14.521Z,35.21
2016-11-24T00:14:14.534Z,35.31
2016-11-24T00:15:14.274Z,35.1
2016-11-24T00:16:14.547Z,35.12
2016-11-24T00:17:14.247Z,35.12
2016-11-24T00:18:14.611Z,35.12
2016-11-24T00:19:14.566Z,35.12
2016-11-24T00:20:14.575Z,35.21
2016-11-24T00:21:15.386Z,35.12
2016-11-24T00:22:14.278Z,35.2
2016-11-24T00:23:14.286Z,35.1
2016-11-24T00:24:14.604Z,35.02
2016-11-24T00:25:14.610Z,35.1
2016-11-24T00:26:14.618Z,35
2016-11-24T00:27:14.633Z,35.12
2016-11-24T00:28:14.322Z,35.12
2016-11-24T00:29:14.328Z,35.12
2016-11-24T00:30:14.646Z,34.92
2016-11-24T00:31:14.660Z,35.12
2016-11-24T00:32:15.405Z,35.12
2016-11-24T00:33:14.675Z,35
2016-11-24T00:34:14.430Z,34.92
2016-11-24T00:35:14.686Z,34.92
2016-11-24T00:36:14.692Z,34.83
2016-11-24T00:37:14.387Z,34.83
2016-11-24T00:38:14.705Z,34.83
2016-11-24T00:39:14.716Z,34.83
2016-11-24T00:40:14.722Z,34.83
2016-11-24T00:41:14.417Z,34.73
2016-11-24T00:42:14.421Z,34.73
2016-11-24T00:43:15.081Z,34.81
2016-11-24T00:44:14.801Z,34.71
2016-11-24T00:45:14.757Z,34.83
2016-11-24T00:46:14.765Z,34.83
2016-11-24T00:47:14.458Z,34.83
2016-11-24T00:48:14.465Z,34.81
2016-11-24T00:49:14.474Z,34.81
2016-11-24T00:50:14.848Z,34.83
2016-11-24T00:51:14.491Z,34.73
2016-11-24T00:52:14.854Z,34.71
2016-11-24T00:53:14.815Z,34.71
2016-11-24T00:54:15.071Z,34.63
2016-11-24T00:55:14.830Z,34.73
2016-11-24T00:56:14.838Z,34.83
2016-11-24T00:57:14.844Z,34.71
2016-11-24T00:58:14.538Z,34.71
2016-11-24T00:59:14.858Z,34.81
2016-11-24T01:00:14.554Z,34.73
2016-11-24T01:01:14.610Z,34.83
2016-11-24T01:02:14.932Z,34.83
2016-11-24T01:03:14.888Z,34.92
2016-11-24T01:04:14.587Z,34.73
2016-11-24T01:05:14.905Z,34.83
2016-11-24T01:06:14.599Z,34.83
2016-11-24T01:07:16.092Z,34.83
2016-11-24T01:08:14.612Z,34.92
2016-11-24T01:09:14.622Z,34.92
2016-11-24T01:10:14.627Z,34.92
2016-11-24T01:11:14.999Z,35.02
2016-11-24T01:12:14.694Z,34.92
2016-11-24T01:13:15.011Z,34.92
2016-11-24T01:14:14.965Z,35.02
2016-11-24T01:15:14.976Z,34.83
2016-11-24T01:16:14.984Z,35.02
2016-11-24T01:17:14.734Z,34.92
2016-11-24T01:18:14.710Z,35.02
2016-11-24T01:19:15.006Z,34.83
2016-11-24T01:20:15.063Z,34.63
2016-11-24T01:21:15.025Z,34.81
2016-11-24T01:22:15.031Z,34.63
2016-11-24T01:23:14.725Z,34.73
2016-11-24T01:24:15.044Z,34.71
2016-11-24T01:25:14.788Z,34.71
2016-11-24T01:26:14.745Z,34.62
2016-11-24T01:27:14.802Z,34.71
2016-11-24T01:28:14.809Z,34.81
2016-11-24T01:29:15.629Z,34.71
2016-11-24T01:30:15.140Z,34.71
2016-11-24T01:31:14.783Z,34.62
2016-11-24T01:32:15.107Z,34.71
2016-11-24T01:33:14.798Z,34.62
2016-11-24T01:34:15.115Z,34.81
2016-11-24T01:35:15.124Z,34.71
2016-11-24T01:36:14.816Z,34.71
2016-11-24T01:37:15.139Z,34.71
2016-11-24T01:38:15.153Z,34.81
2016-11-24T01:39:15.155Z,34.62
2016-11-24T01:40:15.312Z,34.71
2016-11-24T01:41:14.862Z,34.71
2016-11-24T01:42:14.860Z,34.71
2016-11-24T01:43:14.872Z,34.71
2016-11-24T01:44:15.178Z,34.71
2016-11-24T01:45:15.202Z,34.71
2016-11-24T01:46:15.207Z,34.71
2016-11-24T01:47:15.209Z,34.81
2016-11-24T01:48:15.216Z,34.91
2016-11-24T01:49:15.225Z,34.71
2016-11-24T01:50:14.919Z,34.71
2016-11-24T01:51:15.240Z,34.71
2016-11-24T01:52:15.246Z,34.71
2016-11-24T01:53:16.110Z,34.71
2016-11-24T01:54:15.262Z,34.71
2016-11-24T01:55:14.958Z,34.62
2016-11-24T01:56:14.964Z,34.81
2016-11-24T01:57:15.284Z,34.52
2016-11-24T01:58:14.980Z,34.81
2016-11-24T01:59:15.037Z,34.91
2016-11-24T02:00:15.143Z,34.81
2016-11-24T02:01:15.001Z,34.71
2016-11-24T02:02:15.011Z,34.91
2016-11-24T02:03:15.328Z,34.81
2016-11-24T02:04:16.338Z,34.81
2016-11-24T02:05:15.339Z,34.81
2016-11-24T02:06:15.097Z,34.81
2016-11-24T02:07:15.354Z,34.81
2016-11-24T02:08:15.363Z,34.91
2016-11-24T02:09:15.057Z,34.91
2016-11-24T02:10:15.066Z,34.91
2016-11-24T02:11:15.074Z,34.71
2016-11-24T02:12:15.391Z,34.81
2016-11-24T02:13:15.137Z,35
2016-11-24T02:14:15.094Z,34.81
2016-11-24T02:15:16.016Z,34.91
2016-11-24T02:16:15.422Z,35
2016-11-24T02:17:15.428Z,34.91
2016-11-24T02:18:15.123Z,34.91
2016-11-24T02:19:15.132Z,35
2016-11-24T02:20:15.450Z,35
2016-11-24T02:21:15.170Z,34.81
2016-11-24T02:22:15.156Z,34.91
2016-11-24T02:23:15.158Z,35
2016-11-24T02:24:15.481Z,35
2016-11-24T02:25:15.173Z,35.1
2016-11-24T02:26:16.293Z,35
2016-11-24T02:27:15.503Z,35
2016-11-24T02:28:15.507Z,34.52
2016-11-24T02:29:15.204Z,34.62
2016-11-24T02:30:15.524Z,34.71
2016-11-24T02:31:15.580Z,34.71
2016-11-24T02:32:15.224Z,34.81
2016-11-24T02:33:15.234Z,34.81
2016-11-24T02:34:15.602Z,34.62
2016-11-24T02:35:15.559Z,34.62
2016-11-24T02:36:15.568Z,34.71
2016-11-24T02:37:15.562Z,34.52
2016-11-24T02:38:15.268Z,34.71
2016-11-24T02:39:15.639Z,34.52
2016-11-24T02:40:15.312Z,34.71
2016-11-24T02:41:15.604Z,34.52
2016-11-24T02:42:15.349Z,34.52
2016-11-24T02:43:15.305Z,34.52
2016-11-24T02:44:15.628Z,34.71
2016-11-24T02:45:15.322Z,34.62
2016-11-24T02:46:15.639Z,34.81
2016-11-24T02:47:15.334Z,34.81
2016-11-24T02:48:15.892Z,34.91
2016-11-24T02:49:15.348Z,35.1
2016-11-24T02:50:15.356Z,34.91
2016-11-24T02:51:15.364Z,34.91
2016-11-24T02:52:15.684Z,35
2016-11-24T02:53:15.690Z,35
2016-11-24T02:54:15.704Z,34.91
2016-11-24T02:55:15.392Z,35
2016-11-24T02:56:15.764Z,35
2016-11-24T02:57:15.406Z,35
2016-11-24T02:58:15.464Z,34.91
2016-11-24T02:59:15.788Z,35
2016-11-24T03:00:15.741Z,35
2016-11-24T03:01:16.609Z,34.91
2016-11-24T03:02:15.755Z,35
2016-11-24T03:03:15.850Z,35
2016-11-24T03:04:15.458Z,34.91
2016-11-24T03:05:15.805Z,35
2016-11-24T03:06:15.787Z,35.1
2016-11-24T03:07:15.793Z,35.1
2016-11-24T03:08:15.799Z,35
2016-11-24T03:09:15.804Z,35
2016-11-24T03:10:15.500Z,34.91
2016-11-24T03:11:15.821Z,35
2016-11-24T03:12:15.514Z,34.91
2016-11-24T03:13:15.835Z,34.91
2016-11-24T03:14:15.530Z,35
2016-11-24T03:15:15.536Z,35
2016-11-24T03:16:15.542Z,35
2016-11-24T03:17:15.602Z,34.91
2016-11-24T03:18:15.555Z,34.91
2016-11-24T03:19:15.566Z,35
2016-11-24T03:20:15.572Z,35
2016-11-24T03:21:15.580Z,34.71
2016-11-24T03:22:15.587Z,34.91
2016-11-24T03:23:16.807Z,35
2016-11-24T03:24:15.915Z,35
2016-11-24T03:25:15.923Z,35.1
2016-11-24T03:26:15.929Z,35
2016-11-24T03:27:15.932Z,35
2016-11-24T03:28:15.630Z,35
2016-11-24T03:29:15.985Z,35
2016-11-24T03:30:15.965Z,34.81
2016-11-24T03:31:15.965Z,34.62
2016-11-24T03:32:15.971Z,34.62
2016-11-24T03:33:15.983Z,34.62
2016-11-24T03:34:16.985Z,34.62
2016-11-24T03:35:15.994Z,34.81
2016-11-24T03:36:15.686Z,34.62
2016-11-24T03:37:15.693Z,34.71
2016-11-24T03:38:16.016Z,34.62
2016-11-24T03:39:16.072Z,34.71
2016-11-24T03:40:15.714Z,34.62
2016-11-24T03:41:15.725Z,34.71
2016-11-24T03:42:16.046Z,34.71
2016-11-24T03:43:16.102Z,34.81
2016-11-24T03:44:16.103Z,34.62
2016-11-24T03:45:16.966Z,34.42
2016-11-24T03:46:15.759Z,34.62
2016-11-24T03:47:16.081Z,34.62
2016-11-24T03:48:16.086Z,34.13
2016-11-24T03:49:17.216Z,34.33
2016-11-24T03:50:16.100Z,34.33
2016-11-24T03:51:16.156Z,34.23
2016-11-24T03:52:15.800Z,34.23
2016-11-24T03:53:16.126Z,34.62
2016-11-24T03:54:16.182Z,34.62
2016-11-24T03:55:16.136Z,34.23
2016-11-24T03:56:16.144Z,34.42
2016-11-24T03:57:16.204Z,34.33
2016-11-24T03:58:16.159Z,34.33
2016-11-24T03:59:15.852Z,34.62
2016-11-24T04:00:17.074Z,34.62
2016-11-24T04:01:15.869Z,34.42
2016-11-24T04:02:16.191Z,34.62
2016-11-24T04:03:16.197Z,34.62
2016-11-24T04:04:15.892Z,34.23
2016-11-24T04:05:15.898Z,34.23
2016-11-24T04:06:15.905Z,34.23
2016-11-24T04:07:15.911Z,34.33
2016-11-24T04:08:16.280Z,34.23
2016-11-24T04:09:15.927Z,34.33
2016-11-24T04:10:16.246Z,33.94
2016-11-24T04:11:16.892Z,34.23
2016-11-24T04:12:16.263Z,34.62
2016-11-24T04:13:16.317Z,33.94
2016-11-24T04:14:16.876Z,34.52
2016-11-24T04:15:16.279Z,34.04
2016-11-24T04:16:16.289Z,34.62
2016-11-24T04:17:16.303Z,34.62
2016-11-24T04:18:16.302Z,34.62
2016-11-24T04:19:15.997Z,34.62
2016-11-24T04:20:16.004Z,34.52
2016-11-24T04:21:16.012Z,34.71
2016-11-24T04:22:16.483Z,34.13
2016-11-24T04:23:16.026Z,34.23
2016-11-24T04:24:16.347Z,34.23
2016-11-24T04:25:16.354Z,34.71
2016-11-24T04:26:16.359Z,34.71
2016-11-24T04:27:16.057Z,34.33
2016-11-24T04:28:16.063Z,34.23
2016-11-24T04:29:16.070Z,34.23
2016-11-24T04:30:16.390Z,34.21
2016-11-24T04:31:16.132Z,34.52
2016-11-24T04:32:16.090Z,34.62
2016-11-24T04:33:16.560Z,34.62
2016-11-24T04:34:16.420Z,34.62
2016-11-24T04:35:16.426Z,34.71
2016-11-24T04:36:16.431Z,34.04
2016-11-24T04:37:16.127Z,34.62
2016-11-24T04:38:16.132Z,34.62
2016-11-24T04:39:16.141Z,34.62
2016-11-24T04:40:16.150Z,34.7
2016-11-24T04:41:16.155Z,34.04
2016-11-24T04:42:16.483Z,34.52
2016-11-24T04:43:16.484Z,34.52
2016-11-24T04:44:16.491Z,34.33
2016-11-24T04:45:16.241Z,34.13
2016-11-24T04:46:17.654Z,34.62
2016-11-24T04:47:16.251Z,34.31
2016-11-24T04:48:16.205Z,34.04
2016-11-24T04:49:16.213Z,34.33
2016-11-24T04:50:16.225Z,34.33
2016-11-24T04:51:16.327Z,34.52
2016-11-24T04:52:16.234Z,34.13
2016-11-24T04:53:16.606Z,34.42
2016-11-24T04:54:16.253Z,34.31
2016-11-24T04:55:16.255Z,34.33
2016-11-24T04:56:16.263Z,34.33
2016-11-24T04:57:17.370Z,34.42
2016-11-24T04:58:16.589Z,34.04
2016-11-24T04:59:16.599Z,34.52
2016-11-24T05:00:16.603Z,34.33
2016-11-24T05:01:16.611Z,33.94
2016-11-24T05:02:16.618Z,34.04
2016-11-24T05:03:16.315Z,34.04
2016-11-24T05:04:16.369Z,33.94
2016-11-24T05:05:16.638Z,34.52
2016-11-24T05:06:16.697Z,34.04
2016-11-24T05:07:16.342Z,33.84
2016-11-24T05:08:16.906Z,34.13
2016-11-24T05:09:16.357Z,34.52
2016-11-24T05:10:16.726Z,34.02
2016-11-24T05:11:16.373Z,34.04
2016-11-24T05:12:16.690Z,33.84
2016-11-24T05:13:16.384Z,34.04
2016-11-24T05:14:18.342Z,34.04
2016-11-24T05:15:16.708Z,33.94
2016-11-24T05:16:16.715Z,34.33
2016-11-24T05:17:16.411Z,34.23
2016-11-24T05:18:16.731Z,34.23
2016-11-24T05:19:17.023Z,33.94
2016-11-24T05:20:16.482Z,33.94
2016-11-24T05:21:16.753Z,33.94
2016-11-24T05:22:16.760Z,33.84
2016-11-24T05:23:16.768Z,34.33
2016-11-24T05:24:16.458Z,34.13
2016-11-24T05:25:16.780Z,34.23
2016-11-24T05:26:16.813Z,34.04
2016-11-24T05:27:16.795Z,33.94
2016-11-24T05:28:16.804Z,34.23
2016-11-24T05:29:16.842Z,34.04
2016-11-24T05:30:16.824Z,34.04
2016-11-24T05:31:16.512Z,33.94
2016-11-24T05:32:17.781Z,33.75
2016-11-24T05:33:16.838Z,33.84
2016-11-24T05:34:16.865Z,33.75
2016-11-24T05:35:16.538Z,33.84
2016-11-24T05:36:16.910Z,33.94
2016-11-24T05:37:16.868Z,34.04
2016-11-24T05:38:16.876Z,34.04
2016-11-24T05:39:16.568Z,33.75
2016-11-24T05:40:16.577Z,34.33
2016-11-24T05:41:16.897Z,34.23
2016-11-24T05:42:16.591Z,33.75
2016-11-24T05:43:17.710Z,34.33
2016-11-24T05:44:16.605Z,34.33
2016-11-24T05:45:16.611Z,34.33
2016-11-24T05:46:16.621Z,34.42
2016-11-24T05:47:16.632Z,34.23
2016-11-24T05:48:16.953Z,34.04
2016-11-24T05:49:16.952Z,34.21
2016-11-24T05:50:16.959Z,34.42
2016-11-24T05:51:17.015Z,33.75
2016-11-24T05:52:16.713Z,34.33
2016-11-24T05:53:16.980Z,34.23
2016-11-24T05:54:17.288Z,34.23
2016-11-24T05:55:16.684Z,33.84
2016-11-24T05:56:17.001Z,34.31
2016-11-24T05:57:17.007Z,34.23
2016-11-24T05:58:17.068Z,33.84
2016-11-24T05:59:16.710Z,34.23
2016-11-24T06:00:17.030Z,34.33
2016-11-24T06:01:16.724Z,34.23
2016-11-24T06:02:17.046Z,33.94
2016-11-24T06:03:17.989Z,34.04
2016-11-24T06:04:17.059Z,33.75
2016-11-24T06:05:17.317Z,34.02
2016-11-24T06:06:16.819Z,33.94
2016-11-24T06:07:17.092Z,33.94
2016-11-24T06:08:17.089Z,33.94
2016-11-24T06:09:16.831Z,34.04
2016-11-24T06:10:16.790Z,34.04
2016-11-24T06:11:17.107Z,34.13
2016-11-24T06:12:17.116Z,34.04
2016-11-24T06:13:16.808Z,33.94
2016-11-24T06:14:31.746Z,34.02
2016-11-24T06:15:17.139Z,34.13
2016-11-24T06:16:16.831Z,33.94
2016-11-24T06:17:17.151Z,34.04
2016-11-24T06:18:18.286Z,34.04
2016-11-24T06:19:17.164Z,33.94
2016-11-24T06:20:16.859Z,33.73
2016-11-24T06:21:16.894Z,33.84
2016-11-24T06:22:17.186Z,34.04
2016-11-24T06:23:17.192Z,33.84
2016-11-24T06:24:16.886Z,33.75
2016-11-24T06:25:17.209Z,33.94
2016-11-24T06:26:16.904Z,33.92
2016-11-24T06:27:17.272Z,33.65
2016-11-24T06:28:17.228Z,33.63
2016-11-24T06:29:18.026Z,34.04
2016-11-24T06:30:17.243Z,33.75
2016-11-24T06:31:17.251Z,34.23
2016-11-24T06:32:17.259Z,34.13
2016-11-24T06:33:16.951Z,34.13
2016-11-24T06:34:16.959Z,34.12
2016-11-24T06:35:16.966Z,34.13
2016-11-24T06:36:17.586Z,34.13
2016-11-24T06:37:16.978Z,34.12
2016-11-24T06:38:16.988Z,34.12
2016-11-24T06:39:17.303Z,34.23
2016-11-24T06:40:17.402Z,34.33
2016-11-24T06:41:17.320Z,34.33
2016-11-24T06:42:17.331Z,34.31
2016-11-24T06:43:17.071Z,33.75
2016-11-24T06:44:33.000Z,33.75
2016-11-24T06:45:17.350Z,33.65
2016-11-24T06:46:17.356Z,33.75
2016-11-24T06:47:17.050Z,34.04
2016-11-24T06:48:17.373Z,33.75
2016-11-24T06:49:17.117Z,33.75
2016-11-24T06:50:17.071Z,33.84
2016-11-24T06:51:17.830Z,33.84
2016-11-24T06:52:17.398Z,33.84
2016-11-24T06:53:17.094Z,33.84
2016-11-24T06:54:17.151Z,33.75
2016-11-24T06:55:17.423Z,33.84
2016-11-24T06:56:17.435Z,33.94
2016-11-24T06:57:17.435Z,33.94
2016-11-24T06:58:17.127Z,33.75
2016-11-24T06:59:17.455Z,33.94
2016-11-24T07:00:17.456Z,33.94
2016-11-24T07:01:17.151Z,33.75
2016-11-24T07:02:17.457Z,33.65
2016-11-24T07:03:17.479Z,33.94
2016-11-24T07:04:18.461Z,33.84
2016-11-24T07:05:17.230Z,33.45
2016-11-24T07:06:17.504Z,33.45
2016-11-24T07:07:17.227Z,33.26
2016-11-24T07:08:17.564Z,33.45
2016-11-24T07:09:17.209Z,33.75
2016-11-24T07:10:17.528Z,33.65
2016-11-24T07:11:17.221Z,33.36
2016-11-24T07:12:17.541Z,33.26
2016-11-24T07:13:17.586Z,33.65
2016-11-24T07:14:17.244Z,33.45
2016-11-24T07:15:17.569Z,33.55
2016-11-24T07:16:17.571Z,33.45
2016-11-24T07:17:17.578Z,33.45
2016-11-24T07:18:17.588Z,33.55
2016-11-24T07:19:17.277Z,33.36
2016-11-24T07:20:17.284Z,33.55
2016-11-24T07:21:17.395Z,33.36
2016-11-24T07:22:17.301Z,33.26
2016-11-24T07:23:17.307Z,33.26
2016-11-24T07:24:17.727Z,33.75
2016-11-24T07:25:17.636Z,33.45
2016-11-24T07:26:18.599Z,33.45
2016-11-24T07:27:17.700Z,33.55
2016-11-24T07:28:17.341Z,33.36
2016-11-24T07:29:17.661Z,33.45
2016-11-24T07:30:17.672Z,33.36
2016-11-24T07:31:17.685Z,32.78
2016-11-24T07:32:17.375Z,32.7
2016-11-24T07:33:17.377Z,32.21
2016-11-24T07:34:17.703Z,31.74
2016-11-24T07:35:17.552Z,31.36
2016-11-24T07:36:17.449Z,31.09
2016-11-24T07:37:18.821Z,30.51
2016-11-24T07:38:17.757Z,30.04
2016-11-24T07:39:17.420Z,30.04
2016-11-24T07:40:17.745Z,30.32
2016-11-24T07:41:17.746Z,29.47
2016-11-24T07:42:17.445Z,29.08
2016-11-24T07:43:17.763Z,29.27
2016-11-24T07:44:17.456Z,29.1
2016-11-24T07:45:17.464Z,28.8
2016-11-24T07:46:17.475Z,27.93
2016-11-24T07:47:17.791Z,28.33
2016-11-24T07:48:18.849Z,28.23
2016-11-24T07:49:17.809Z,28.23
2016-11-24T07:50:17.750Z,28.14
2016-11-24T07:51:17.820Z,28.15
2016-11-24T07:52:17.879Z,27.84
2016-11-24T07:53:17.832Z,27.75
2016-11-24T07:54:17.842Z,27.96
2016-11-24T07:55:17.847Z,27.47
2016-11-24T07:56:17.542Z,27.67
2016-11-24T07:57:17.551Z,27.08
2016-11-24T07:58:17.871Z,27.67
2016-11-24T07:59:18.828Z,27.67
2016-11-24T08:00:17.935Z,27.47
2016-11-24T08:01:17.894Z,27.37
2016-11-24T08:02:17.588Z,27.39
2016-11-24T08:03:17.908Z,27.58
2016-11-24T08:04:17.605Z,27.1
2016-11-24T08:05:17.610Z,27.19
2016-11-24T08:06:17.617Z,26.9
2016-11-24T08:07:17.624Z,27
2016-11-24T08:08:17.630Z,26.9
2016-11-24T08:09:17.952Z,27
2016-11-24T08:10:18.572Z,26.72
2016-11-24T08:11:17.975Z,26.92
2016-11-24T08:12:17.662Z,27.1
2016-11-24T08:13:18.045Z,27.21
2016-11-24T08:14:17.998Z,27.11
2016-11-24T08:15:17.682Z,26.72
2016-11-24T08:16:18.003Z,26.72
2016-11-24T08:17:18.011Z,27.01
2016-11-24T08:18:18.017Z,26.72
2016-11-24T08:19:17.720Z,27.01
2016-11-24T08:20:18.081Z,26.72
2016-11-24T08:21:18.576Z,26.92
2016-11-24T08:22:18.049Z,26.62
2016-11-24T08:23:17.743Z,26.82
2016-11-24T08:24:18.074Z,26.82
2016-11-24T08:25:18.083Z,26.82
2016-11-24T08:26:18.128Z,26.43
2016-11-24T08:27:18.095Z,26.62
2016-11-24T08:28:18.141Z,26.82
2016-11-24T08:29:17.802Z,26.92
2016-11-24T08:30:17.852Z,26.72
2016-11-24T08:31:17.803Z,26.72
2016-11-24T08:32:18.109Z,26.62
2016-11-24T08:33:18.129Z,26.72
2016-11-24T08:34:18.137Z,26.82
2016-11-24T08:35:18.144Z,26.92
2016-11-24T08:36:18.789Z,26.92
2016-11-24T08:37:18.210Z,26.82
2016-11-24T08:38:17.857Z,26.72
2016-11-24T08:39:18.186Z,26.92
2016-11-24T08:40:18.186Z,26.92
2016-11-24T08:41:18.250Z,26.82
2016-11-24T08:42:18.248Z,26.82
2016-11-24T08:43:18.207Z,26.72
2016-11-24T08:44:17.901Z,26.62
2016-11-24T08:45:17.981Z,26.53
2016-11-24T08:46:18.230Z,26.53
2016-11-24T08:47:18.437Z,26.53
2016-11-24T08:48:17.929Z,26.72
2016-11-24T08:49:17.938Z,26.82
2016-11-24T08:50:17.946Z,26.72
2016-11-24T08:51:18.269Z,26.82
2016-11-24T08:52:17.963Z,26.62
2016-11-24T08:53:17.970Z,26.72
2016-11-24T08:54:18.289Z,26.82
2016-11-24T08:55:18.033Z,26.72
2016-11-24T08:56:19.456Z,26.92
2016-11-24T08:57:18.311Z,26.62
2016-11-24T08:58:18.371Z,26.53
2016-11-24T08:59:18.331Z,26.62
2016-11-24T09:00:18.022Z,26.43
2016-11-24T09:01:18.032Z,26.62
2016-11-24T09:02:18.088Z,26.82
2016-11-24T09:03:18.048Z,26.82
2016-11-24T09:04:18.054Z,26.72
2016-11-24T09:05:18.374Z,26.72
2016-11-24T09:06:18.379Z,26.72
2016-11-24T09:07:19.291Z,26.72
2016-11-24T09:08:18.084Z,26.72
2016-11-24T09:09:18.402Z,26.62
2016-11-24T09:10:18.104Z,27.01
2016-11-24T09:11:18.422Z,26.92
2016-11-24T09:12:18.118Z,27.31
2016-11-24T09:13:18.123Z,27.01
2016-11-24T09:14:18.447Z,26.92
2016-11-24T09:15:18.136Z,26.72
2016-11-24T09:16:18.459Z,26.92
2016-11-24T09:17:18.203Z,26.92
2016-11-24T09:18:19.923Z,27.31
2016-11-24T09:19:18.534Z,27.01
2016-11-24T09:20:18.489Z,26.82
2016-11-24T09:21:18.186Z,26.9
2016-11-24T09:22:19.505Z,27.19
2016-11-24T09:23:18.512Z,27.21
2016-11-24T09:24:18.518Z,27
2016-11-24T09:25:18.530Z,26.82
2016-11-24T09:26:18.277Z,26.82
2016-11-24T09:27:18.543Z,26.82
2016-11-24T09:28:18.296Z,26.82
2016-11-24T09:29:18.250Z,26.62
2016-11-24T09:30:18.252Z,26.82
2016-11-24T09:31:18.263Z,27.01
2016-11-24T09:32:18.321Z,27.01
2016-11-24T09:33:18.930Z,26.92
2016-11-24T09:34:18.597Z,26.92
2016-11-24T09:35:18.291Z,27.31
2016-11-24T09:36:18.300Z,26.72
2016-11-24T09:37:18.622Z,27.11
2016-11-24T09:38:18.366Z,27.21
2016-11-24T09:39:18.325Z,26.92
2016-11-24T09:40:18.704Z,27.31
2016-11-24T09:41:18.651Z,27.11
2016-11-24T09:42:19.605Z,26.82
2016-11-24T09:43:18.669Z,27.31
2016-11-24T09:44:19.227Z,27.31
2016-11-24T09:45:18.732Z,26.92
2016-11-24T09:46:18.429Z,26.82
2016-11-24T09:47:18.752Z,26.62
2016-11-24T09:48:18.392Z,26.72
2016-11-24T09:49:18.398Z,26.82
2016-11-24T09:50:18.409Z,26.43
2016-11-24T09:51:18.731Z,26.72
2016-11-24T09:52:18.425Z,26.43
2016-11-24T09:53:18.435Z,26.62
2016-11-24T09:54:18.489Z,26.82
2016-11-24T09:55:18.848Z,26.53
2016-11-24T09:56:18.453Z,26.72
2016-11-24T09:57:18.778Z,26.62
2016-11-24T09:58:18.781Z,26.53
2016-11-24T09:59:18.480Z,26.43
2016-11-24T10:00:18.797Z,26.53
2016-11-24T10:01:18.493Z,26.53
2016-11-24T10:02:18.863Z,26.43
2016-11-24T10:03:18.821Z,26.43
2016-11-24T10:04:18.547Z,26.53
2016-11-24T10:05:18.832Z,26.53
2016-11-24T10:06:19.041Z,26.62
2016-11-24T10:07:18.853Z,26.82
2016-11-24T10:08:18.545Z,26.72
2016-11-24T10:09:18.586Z,26.82
2016-11-24T10:10:18.564Z,26.82
2016-11-24T10:11:18.931Z,26.82
2016-11-24T10:12:18.579Z,26.82
2016-11-24T10:13:18.584Z,26.72
2016-11-24T10:14:33.522Z,26.82
2016-11-24T10:15:18.599Z,26.82
2016-11-24T10:16:18.617Z,26.62
2016-11-24T10:17:18.979Z,26.62
2016-11-24T10:18:18.936Z,26.43
2016-11-24T10:19:19.764Z,26.72
2016-11-24T10:20:18.692Z,26.53
2016-11-24T10:21:18.961Z,26.82
2016-11-24T10:22:18.973Z,26.62
2016-11-24T10:23:18.663Z,26.82
2016-11-24T10:24:18.722Z,26.72
2016-11-24T10:25:18.992Z,26.53
2016-11-24T10:26:18.687Z,26.62
2016-11-24T10:27:18.694Z,26.62
2016-11-24T10:28:19.014Z,26.82
2016-11-24T10:29:18.714Z,26.82
2016-11-24T10:30:20.154Z,26.53
2016-11-24T10:31:18.727Z,26.72
2016-11-24T10:32:18.748Z,26.72
2016-11-24T10:33:19.055Z,26.82
2016-11-24T10:34:19.062Z,26.82
2016-11-24T10:35:19.125Z,26.72
2016-11-24T10:36:19.140Z,26.62
2016-11-24T10:37:19.125Z,26.72
2016-11-24T10:38:18.784Z,26.71
2016-11-24T10:39:19.106Z,26.71
2016-11-24T10:40:19.158Z,26.61
2016-11-24T10:41:19.608Z,26.81
2016-11-24T10:42:18.876Z,26.9
2016-11-24T10:43:19.434Z,26.71
2016-11-24T10:44:19.392Z,26.72
2016-11-24T10:45:19.433Z,26.72
2016-11-24T10:46:19.400Z,26.72
2016-11-24T10:47:19.094Z,26.62
2016-11-24T10:48:19.171Z,27.11
2016-11-24T10:49:19.166Z,27
2016-11-24T10:50:18.979Z,26.62
2016-11-24T10:51:19.487Z,26.9
2016-11-24T10:52:19.968Z,26.9
2016-11-24T10:53:19.425Z,26.82
2016-11-24T10:54:19.494Z,27.01
2016-11-24T10:55:19.280Z,26.81
2016-11-24T10:56:19.073Z,27.01
2016-11-24T10:57:19.248Z,27.1
2016-11-24T10:58:19.117Z,27
2016-11-24T10:59:19.303Z,27
2016-11-24T11:00:19.267Z,27.29
2016-11-24T11:01:19.397Z,27
2016-11-24T11:02:19.456Z,27
2016-11-24T11:03:20.168Z,27.78
2016-11-24T11:04:19.487Z,27.29
2016-11-24T11:05:19.432Z,27.48
2016-11-24T11:06:19.216Z,27.29
2016-11-24T11:07:19.557Z,27.59
2016-11-24T11:08:19.484Z,27.78
2016-11-24T11:09:19.140Z,27.5
2016-11-24T11:10:19.275Z,27.87
2016-11-24T11:11:19.574Z,27.78
2016-11-24T11:12:19.500Z,27.78
2016-11-24T11:13:19.562Z,27.89
2016-11-24T11:14:20.173Z,27.87
2016-11-24T11:15:19.380Z,27.19
2016-11-24T11:16:19.438Z,27.59
2016-11-24T11:17:19.399Z,27.39
2016-11-24T11:18:19.403Z,27.89
2016-11-24T11:19:19.100Z,27.79
2016-11-24T11:20:19.417Z,27.79
2016-11-24T11:21:19.427Z,27.79
2016-11-24T11:22:19.122Z,27.5
2016-11-24T11:23:19.442Z,28.18
2016-11-24T11:24:19.135Z,27.78
2016-11-24T11:25:20.007Z,27.89
2016-11-24T11:26:19.467Z,27.98
2016-11-24T11:27:19.479Z,28.08
2016-11-24T11:28:19.481Z,28.08
2016-11-24T11:29:19.489Z,27.98
2016-11-24T11:30:19.184Z,27.79
2016-11-24T11:31:19.555Z,28.08
2016-11-24T11:32:19.526Z,28.38
2016-11-24T11:33:19.208Z,28.18
2016-11-24T11:34:19.531Z,28.38
2016-11-24T11:35:19.272Z,28.18
2016-11-24T11:36:20.193Z,28.18
2016-11-24T11:37:19.241Z,28.18
2016-11-24T11:38:19.297Z,27.98
2016-11-24T11:39:19.254Z,28.08
2016-11-24T11:40:19.264Z,28.28
2016-11-24T11:41:19.332Z,28.28
2016-11-24T11:42:19.588Z,28.28
2016-11-24T11:43:19.629Z,28.08
2016-11-24T11:44:19.605Z,28.28
2016-11-24T11:45:19.615Z,28.08
2016-11-24T11:46:19.625Z,28.18
2016-11-24T11:47:19.578Z,28.38
2016-11-24T11:48:19.325Z,28.18
2016-11-24T11:49:19.706Z,28.26
2016-11-24T11:50:19.344Z,28.38
2016-11-24T11:51:20.063Z,28.28
2016-11-24T11:52:19.360Z,28.38
2016-11-24T11:53:19.677Z,28.28
2016-11-24T11:54:19.683Z,28.28
2016-11-24T11:55:19.693Z,28.26
2016-11-24T11:56:19.719Z,28.36
2016-11-24T11:57:19.707Z,28.36
2016-11-24T11:58:19.715Z,28.26
2016-11-24T11:59:19.725Z,28.36
2016-11-24T12:00:19.420Z,28.28
2016-11-24T12:01:19.739Z,28.47
2016-11-24T12:02:19.999Z,28.45
2016-11-24T12:03:19.441Z,28.17
2016-11-24T12:04:19.762Z,28.36
2016-11-24T12:05:19.771Z,28.38
2016-11-24T12:06:19.465Z,28.26
2016-11-24T12:07:19.788Z,28.28
2016-11-24T12:08:19.531Z,28.26
2016-11-24T12:09:19.809Z,28.26
2016-11-24T12:10:20.113Z,28.26
2016-11-24T12:11:20.922Z,28.26
2016-11-24T12:12:19.518Z,28.38
2016-11-24T12:13:20.007Z,28.38
2016-11-24T12:14:19.578Z,28.36
2016-11-24T12:15:20.014Z,28.26
2016-11-24T12:16:20.348Z,28.28
2016-11-24T12:17:19.998Z,28.28
2016-11-24T12:18:20.111Z,27.98
2016-11-24T12:19:19.747Z,28.26
2016-11-24T12:20:20.127Z,28.08
2016-11-24T12:21:19.896Z,28.17
2016-11-24T12:22:21.073Z,28.17
2016-11-24T12:23:20.201Z,28.07
2016-11-24T12:24:19.608Z,28.17
2016-11-24T12:25:20.146Z,28.08
2016-11-24T12:26:19.676Z,28.17
2016-11-24T12:27:19.944Z,28.08
2016-11-24T12:28:20.098Z,28.07
2016-11-24T12:29:19.647Z,28.07
2016-11-24T12:30:19.766Z,28.45
2016-11-24T12:31:20.177Z,28.36
2016-11-24T12:32:20.153Z,28.36
2016-11-24T12:33:21.326Z,28.17
2016-11-24T12:34:19.688Z,28.17
2016-11-24T12:35:20.011Z,28.07
2016-11-24T12:36:19.704Z,28.07
2016-11-24T12:37:21.219Z,28.17
2016-11-24T12:38:20.043Z,28.08
2016-11-24T12:39:20.268Z,28.26
2016-11-24T12:40:19.786Z,28.07
2016-11-24T12:41:20.316Z,28.08
2016-11-24T12:42:20.248Z,28.17
2016-11-24T12:43:19.926Z,28.07
2016-11-24T12:44:20.077Z,28.55
2016-11-24T12:45:20.012Z,28.45
2016-11-24T12:46:20.146Z,28.07
2016-11-24T12:47:20.319Z,27.87
2016-11-24T12:48:20.936Z,28.55
2016-11-24T12:49:20.448Z,28.65
2016-11-24T12:50:20.317Z,28.45
2016-11-24T12:51:19.873Z,28.17
2016-11-24T12:52:19.828Z,28.26
2016-11-24T12:53:19.836Z,28.26
2016-11-24T12:54:20.128Z,28.26
2016-11-24T12:55:20.167Z,28.47
2016-11-24T12:56:20.173Z,28.38
2016-11-24T12:57:20.179Z,28.08